Terminal Aerodrome Forecast
Issued by NWS

Home | Current Version | Previous Version | Graphics & Text | Print | Product List | Glossary On
Versions: 1 2 3 4 5 6 7 8 9 10 11 12 13 14 15 16 17 18 19 20 21 22 23 24
000
FTUS42 KMHX 170500
TAFPGV
TAF
KPGV 170524Z 1706/1806 05005KT P6SM SKC
     FM171400 04015G20KT P6SM SCT035
     FM171800 05013G18KT P6SM BKN035
     FM172100 06010KT P6SM BKN035
      AMD LTD TO CLD VIS AND WIND=

USA.gov is the U.S. government's official web portal to all federal, state and local government web resources and services.